Time;durP1;ratioP1;P1;durP2;ratioP2;P2;SDS_P1;SDS_P2;PMS_P1;PMS_P2;Temp;Humidity;BMP_temperature;BMP_pressure;BME280_temperature;BME280_humidity;BME280_pressure;Samples;Min_cycle;Max_cycle;Signal;HPM_P1;HPM_P2
2023/10/11 00:00:34;;;;;;;4.90;3.35;;;;;;;;;;5116376;27;20241;-88
2023/10/11 00:03:06;;;;;;;3.33;3.03;;;;;;;;;;5116750;28;20223;-88
2023/10/11 00:05:39;;;;;;;2.83;2.45;;;;;;;;;;5116308;27;20208;-88
2023/10/11 00:08:09;;;;;;;2.95;2.30;;;;;;;;;;5115701;28;20195;-89
2023/10/11 00:10:44;;;;;;;4.43;3.55;;;;;;;;;;5115659;28;20246;-88
2023/10/11 00:13:15;;;;;;;4.43;2.65;;;;;;;;;;5116514;27;20391;-88
2023/10/11 00:15:44;;;;;;;3.70;2.65;;;;;;;;;;5115566;27;20216;-89
2023/10/11 00:18:12;;;;;;;3.00;2.53;;;;;;;;;;5116094;27;20203;-89
2023/10/11 00:20:50;;;;;;;3.88;2.63;;;;;;;;;;5115580;27;20737;-89
2023/10/11 00:23:22;;;;;;;4.10;2.40;;;;;;;;;;5117222;28;20203;-88
2023/10/11 00:25:52;;;;;;;3.95;3.10;;;;;;;;;;5130187;27;20229;-88
2023/10/11 00:28:23;;;;;;;4.00;2.75;;;;;;;;;;5140627;28;20180;-88
2023/10/11 00:30:53;;;;;;;2.65;2.20;;;;;;;;;;5140314;28;20218;-87
2023/10/11 00:33:21;;;;;;;3.70;3.10;;;;;;;;;;5132575;28;20250;-88
2023/10/11 00:35:50;;;;;;;2.88;2.53;;;;;;;;;;5126798;28;20215;-88
2023/10/11 00:38:20;;;;;;;5.75;2.92;;;;;;;;;;5123887;28;20195;-88
2023/10/11 00:41:06;;;;;;;7.45;3.97;;;;;;;;;;5120316;28;20673;-88
2023/10/11 00:43:35;;;;;;;3.42;2.63;;;;;;;;;;5118939;28;20203;-88
2023/10/11 00:46:08;;;;;;;3.40;2.53;;;;;;;;;;5116895;28;20654;-89
2023/10/11 00:48:43;;;;;;;3.15;2.67;;;;;;;;;;5116737;28;20199;-89
2023/10/11 00:51:12;;;;;;;2.42;2.20;;;;;;;;;;5116250;28;20279;-89
2023/10/11 00:53:40;;;;;;;3.38;2.17;;;;;;;;;;5115726;28;20195;-88
2023/10/11 00:56:10;;;;;;;4.78;2.75;;;;;;;;;;5115090;28;20220;-89
2023/10/11 00:58:39;;;;;;;2.15;2.00;;;;;;;;;;5115374;27;20282;-88
2023/10/11 01:01:08;;;;;;;3.22;2.05;;;;;;;;;;5115583;28;20222;-89
2023/10/11 01:03:37;;;;;;;2.92;2.22;;;;;;;;;;5115624;27;20203;-89
2023/10/11 01:06:05;;;;;;;2.35;1.98;;;;;;;;;;5114678;28;20208;-89
2023/10/11 01:08:38;;;;;;;2.83;2.38;;;;;;;;;;5114752;28;20564;-88
2023/10/11 01:11:12;;;;;;;4.55;2.30;;;;;;;;;;5115395;28;20255;-89
2023/10/11 01:13:40;;;;;;;2.38;2.17;;;;;;;;;;5115556;28;20195;-88
2023/10/11 01:16:10;;;;;;;2.40;2.20;;;;;;;;;;5114927;28;20223;-88
2023/10/11 01:18:40;;;;;;;6.40;2.78;;;;;;;;;;5115076;28;20222;-88
2023/10/11 01:21:10;;;;;;;3.15;2.38;;;;;;;;;;5114590;28;20211;-89
2023/10/11 01:23:37;;;;;;;3.83;2.28;;;;;;;;;;5115513;27;20680;-89
2023/10/11 01:26:09;;;;;;;2.33;2.13;;;;;;;;;;5115163;27;20267;-89
2023/10/11 01:28:37;;;;;;;2.65;2.17;;;;;;;;;;5115037;27;20215;-88
2023/10/11 01:31:09;;;;;;;2.72;2.50;;;;;;;;;;5114292;28;20315;-89
2023/10/11 01:33:40;;;;;;;2.92;2.30;;;;;;;;;;5115051;28;20195;-88
2023/10/11 01:36:11;;;;;;;3.47;2.70;;;;;;;;;;5114867;28;20630;-89
2023/10/11 01:38:46;;;;;;;2.88;2.17;;;;;;;;;;5114938;27;20210;-88
2023/10/11 01:41:16;;;;;;;2.10;2.00;;;;;;;;;;5114716;27;20267;-89
2023/10/11 01:43:46;;;;;;;3.03;2.58;;;;;;;;;;5115021;27;20211;-89
2023/10/11 01:46:16;;;;;;;3.80;3.00;;;;;;;;;;5115036;27;20195;-89
2023/10/11 01:48:44;;;;;;;3.55;2.97;;;;;;;;;;5114976;28;20245;-88
2023/10/11 01:51:15;;;;;;;2.63;2.42;;;;;;;;;;5114195;27;20772;-88
2023/10/11 01:53:45;;;;;;;3.95;2.65;;;;;;;;;;5114421;28;20196;-88
2023/10/11 01:56:13;;;;;;;2.92;2.70;;;;;;;;;;5114394;27;20222;-89
2023/10/11 01:58:42;;;;;;;3.08;2.20;;;;;;;;;;5114407;28;20192;-89
2023/10/11 02:01:21;;;;;;;3.80;2.70;;;;;;;;;;5114580;28;20225;-88
2023/10/11 02:03:53;;;;;;;3.90;2.72;;;;;;;;;;5115001;28;20237;-89
2023/10/11 02:06:23;;;;;;;2.88;2.40;;;;;;;;;;5113471;28;20204;-88
2023/10/11 02:08:51;;;;;;;4.30;2.92;;;;;;;;;;5113202;28;20206;-89
2023/10/11 02:11:23;;;;;;;4.35;2.58;;;;;;;;;;5114111;28;20211;-89
2023/10/11 02:13:51;;;;;;;2.55;2.28;;;;;;;;;;5113388;28;20666;-88
2023/10/11 02:16:18;;;;;;;2.78;2.08;;;;;;;;;;5113217;28;20219;-88
2023/10/11 02:18:51;;;;;;;4.05;2.97;;;;;;;;;;5113175;28;20294;-89
2023/10/11 02:21:19;;;;;;;2.38;1.92;;;;;;;;;;5112866;28;20677;-89
2023/10/11 02:23:48;;;;;;;3.10;2.35;;;;;;;;;;5114000;28;20211;-89
2023/10/11 02:26:17;;;;;;;5.57;3.17;;;;;;;;;;5113566;28;20234;-88
2023/10/11 02:28:46;;;;;;;3.13;2.83;;;;;;;;;;5104615;28;20194;-88
2023/10/11 02:31:24;;;;;;;2.65;2.03;;;;;;;;;;5113433;28;20314;-88
2023/10/11 02:33:52;;;;;;;3.60;2.60;;;;;;;;;;5114092;27;20687;-89
2023/10/11 02:36:20;;;;;;;4.82;3.10;;;;;;;;;;5113824;27;20638;-89
2023/10/11 02:38:50;;;;;;;2.40;2.20;;;;;;;;;;5113119;28;20288;-90
2023/10/11 02:41:21;;;;;;;2.65;2.45;;;;;;;;;;5112447;28;20311;-88
2023/10/11 02:43:49;;;;;;;2.40;2.20;;;;;;;;;;5112675;28;20195;-88
2023/10/11 02:46:17;;;;;;;2.58;2.05;;;;;;;;;;5112825;27;20232;-88
2023/10/11 02:48:46;;;;;;;2.78;1.98;;;;;;;;;;5112662;27;20645;-87
2023/10/11 02:51:16;;;;;;;3.45;1.83;;;;;;;;;;5113375;27;20622;-89
2023/10/11 02:53:44;;;;;;;2.25;2.05;;;;;;;;;;5113108;28;20207;-89
2023/10/11 02:56:15;;;;;;;2.55;2.35;;;;;;;;;;5112348;28;20223;-88
2023/10/11 02:58:42;;;;;;;4.35;2.78;;;;;;;;;;5112829;28;20462;-88
2023/10/11 03:01:16;;;;;;;5.05;3.22;;;;;;;;;;5113352;28;20220;-88
2023/10/11 03:03:44;;;;;;;2.33;2.13;;;;;;;;;;5113470;28;20223;-88
2023/10/11 03:06:12;;;;;;;2.97;2.17;;;;;;;;;;5112448;28;20230;-88
2023/10/11 03:08:40;;;;;;;3.17;2.13;;;;;;;;;;5112364;28;20196;-88
2023/10/11 03:11:15;;;;;;;3.53;2.17;;;;;;;;;;5112138;28;20211;-89
2023/10/11 03:13:45;;;;;;;2.63;2.42;;;;;;;;;;5114314;28;20245;-90
2023/10/11 03:16:16;;;;;;;2.95;2.63;;;;;;;;;;5121403;27;20215;-89
2023/10/11 03:18:46;;;;;;;3.72;2.03;;;;;;;;;;5114940;28;20207;-88
2023/10/11 03:21:19;;;;;;;2.60;2.40;;;;;;;;;;5112640;27;20226;-89
2023/10/11 03:23:48;;;;;;;3.55;3.08;;;;;;;;;;5113436;27;20282;-89
2023/10/11 03:26:18;;;;;;;3.35;2.97;;;;;;;;;;5129711;28;20198;-89
2023/10/11 03:28:57;;;;;;;3.40;2.78;;;;;;;;;;5136122;28;20204;-88
2023/10/11 03:31:27;;;;;;;3.20;2.70;;;;;;;;;;5132847;28;20235;-88
2023/10/11 03:33:55;;;;;;;2.78;2.25;;;;;;;;;;5132409;28;20382;-88
2023/10/11 03:36:28;;;;;;;2.95;2.75;;;;;;;;;;5125636;28;20441;-88
2023/10/11 03:38:57;;;;;;;3.58;2.60;;;;;;;;;;5112312;28;20211;-87
2023/10/11 03:41:29;;;;;;;5.30;3.63;;;;;;;;;;5102050;28;20318;-88
2023/10/11 03:44:09;;;;;;;4.28;3.20;;;;;;;;;;5104088;28;20199;-87
2023/10/11 03:46:38;;;;;;;3.05;2.85;;;;;;;;;;5103311;28;20276;-88
2023/10/11 03:49:49;;;;;;;5.03;3.03;;;;;;;;;;5099871;28;20223;-87
2023/10/11 03:52:04;;;;;;;3.58;2.95;;;;;;;;;;5103935;28;20885;-88
2023/10/11 03:54:36;;;;;;;3.33;2.28;;;;;;;;;;5105345;28;20220;-87
2023/10/11 03:57:05;;;;;;;3.00;2.35;;;;;;;;;;5104579;27;20223;-88
2023/10/11 03:59:39;;;;;;;2.88;2.40;;;;;;;;;;5102800;28;20603;-88
2023/10/11 04:02:10;;;;;;;3.42;3.00;;;;;;;;;;5103792;28;20206;-88
2023/10/11 04:04:42;;;;;;;4.32;2.67;;;;;;;;;;5104308;28;20264;-88
2023/10/11 04:07:12;;;;;;;4.28;3.25;;;;;;;;;;5105406;28;20207;-88
2023/10/11 04:09:40;;;;;;;3.15;2.85;;;;;;;;;;5104940;28;20216;-88
2023/10/11 04:12:10;;;;;;;2.95;2.67;;;;;;;;;;5103534;28;20286;-88
2023/10/11 04:14:44;;;;;;;3.30;2.22;;;;;;;;;;5103997;28;20235;-87
2023/10/11 04:17:26;;;;;;;3.40;2.42;;;;;;;;;;5103547;28;20318;-88
2023/10/11 04:20:16;;;;;;;3.28;2.80;;;;;;;;;;5103910;28;20219;-87
2023/10/11 04:22:50;;;;;;;3.85;2.50;;;;;;;;;;5104117;28;20597;-87
2023/10/11 04:25:22;;;;;;;3.13;2.20;;;;;;;;;;5104610;28;20238;-88
2023/10/11 04:27:55;;;;;;;2.30;2.10;;;;;;;;;;5104735;28;20321;-87
2023/10/11 04:30:40;;;;;;;5.38;3.03;;;;;;;;;;5105197;28;20224;-88
2023/10/11 04:33:11;;;;;;;6.55;2.65;;;;;;;;;;5104692;28;20203;-88
2023/10/11 04:35:42;;;;;;;3.15;2.75;;;;;;;;;;5104629;28;20318;-89
2023/10/11 04:38:11;;;;;;;2.85;2.58;;;;;;;;;;5104713;27;21118;-88
2023/10/11 04:40:41;;;;;;;3.78;3.47;;;;;;;;;;5104382;28;20746;-88
2023/10/11 04:43:20;;;;;;;3.17;2.30;;;;;;;;;;5105050;28;20613;-88
2023/10/11 04:45:51;;;;;;;8.80;3.85;;;;;;;;;;5105136;28;20195;-88
2023/10/11 04:48:29;;;;;;;2.83;2.60;;;;;;;;;;5104989;28;20207;-87
2023/10/11 04:51:04;;;;;;;5.18;2.60;;;;;;;;;;5104763;28;20656;-87
2023/10/11 04:53:35;;;;;;;3.17;2.60;;;;;;;;;;5102190;28;20203;-88
2023/10/11 04:56:51;;;;;;;2.28;2.03;;;;;;;;;;5113515;28;20312;-87
2023/10/11 04:58:54;;;;;;;3.28;2.40;;;;;;;;;;5126689;28;20204;-88
2023/10/11 05:01:25;;;;;;;3.40;2.67;;;;;;;;;;5129852;28;21027;-87
2023/10/11 05:03:59;;;;;;;4.97;2.95;;;;;;;;;;5114043;28;20314;-87
2023/10/11 05:06:31;;;;;;;4.13;3.63;;;;;;;;;;5103953;28;20199;-88
2023/10/11 05:09:13;;;;;;;3.65;3.33;;;;;;;;;;5104514;28;20231;-88
2023/10/11 05:11:44;;;;;;;2.97;2.33;;;;;;;;;;5113395;28;20880;-88
2023/10/11 05:14:28;;;;;;;2.58;2.33;;;;;;;;;;5104812;28;20238;-88
2023/10/11 05:17:16;;;;;;;3.75;2.92;;;;;;;;;;5103634;28;20229;-88
2023/10/11 05:19:46;;;;;;;3.28;2.40;;;;;;;;;;5100755;28;20223;-88
2023/10/11 05:22:23;;;;;;;4.88;2.53;;;;;;;;;;5100523;28;20665;-88
2023/10/11 05:25:12;;;;;;;3.55;3.03;;;;;;;;;;5105320;28;20268;-88
2023/10/11 05:27:47;;;;;;;3.58;2.90;;;;;;;;;;5113728;28;20227;-88
2023/10/11 05:30:28;;;;;;;5.18;2.80;;;;;;;;;;5115327;28;20238;-88
2023/10/11 05:33:09;;;;;;;4.97;3.20;;;;;;;;;;5112115;28;20210;-89
2023/10/11 05:36:14;;;;;;;3.22;2.75;;;;;;;;;;5120773;28;20206;-89
2023/10/11 05:52:25;;;;;;;3.17;2.85;;;;;;;;;;5136922;28;20242;-89
2023/10/11 05:54:54;;;;;;;4.30;2.72;;;;;;;;;;5133727;28;20188;-88
2023/10/11 05:57:23;;;;;;;4.13;3.00;;;;;;;;;;5132488;28;20234;-88
2023/10/11 05:59:51;;;;;;;4.13;2.78;;;;;;;;;;5117275;28;20227;-87
2023/10/11 06:02:19;;;;;;;2.78;2.55;;;;;;;;;;5117779;28;20282;-85
2023/10/11 06:04:49;;;;;;;5.63;3.63;;;;;;;;;;5118659;28;20177;-87
2023/10/11 06:07:19;;;;;;;4.10;3.00;;;;;;;;;;5118253;28;20207;-86
2023/10/11 06:09:52;;;;;;;3.45;2.55;;;;;;;;;;5117898;28;20224;-86
2023/10/11 06:12:27;;;;;;;4.40;2.78;;;;;;;;;;5118247;28;20191;-86
2023/10/11 06:14:55;;;;;;;4.75;2.63;;;;;;;;;;5117711;28;20184;-86
2023/10/11 06:17:32;;;;;;;6.70;4.43;;;;;;;;;;5117739;28;20239;-86
2023/10/11 06:20:23;;;;;;;3.85;2.83;;;;;;;;;;5117986;28;20252;-87
2023/10/11 06:22:51;;;;;;;4.03;2.90;;;;;;;;;;5103505;28;20219;-88
2023/10/11 06:25:23;;;;;;;4.00;2.70;;;;;;;;;;5133247;28;20200;-87
2023/10/11 06:30:35;;;;;;;4.45;3.75;;;;;;;;;;5135540;28;20224;-86
2023/10/11 06:33:05;;;;;;;4.47;3.03;;;;;;;;;;5138239;28;20199;-87
2023/10/11 06:35:43;;;;;;;3.88;3.00;;;;;;;;;;5138069;28;20199;-87
2023/10/11 06:38:12;;;;;;;4.07;3.40;;;;;;;;;;5138006;28;20279;-87
2023/10/11 06:40:39;;;;;;;3.58;3.17;;;;;;;;;;5137557;28;20215;-87
2023/10/11 06:43:07;;;;;;;3.97;3.10;;;;;;;;;;5137986;28;20206;-87
2023/10/11 06:45:35;;;;;;;5.28;3.22;;;;;;;;;;5117874;28;20222;-88
2023/10/11 06:48:07;;;;;;;4.22;3.15;;;;;;;;;;5131120;28;20207;-88
2023/10/11 06:50:36;;;;;;;3.30;2.40;;;;;;;;;;5131444;28;20325;-88
2023/10/11 06:53:07;;;;;;;5.20;2.92;;;;;;;;;;5114055;28;20211;-89
2023/10/11 06:55:36;;;;;;;5.45;3.17;;;;;;;;;;5113206;28;20199;-87
2023/10/11 06:58:09;;;;;;;4.57;3.33;;;;;;;;;;5113794;28;20220;-86
2023/10/11 07:00:45;;;;;;;4.20;2.65;;;;;;;;;;5113235;28;20247;-87
2023/10/11 07:03:26;;;;;;;3.95;2.80;;;;;;;;;;5113507;28;20217;-87
2023/10/11 07:05:58;;;;;;;4.53;3.38;;;;;;;;;;5113145;28;20210;-87
2023/10/11 07:08:32;;;;;;;4.47;2.90;;;;;;;;;;5113457;28;20196;-87
2023/10/11 07:11:04;;;;;;;4.30;3.28;;;;;;;;;;5112856;28;20225;-87
2023/10/11 07:13:49;;;;;;;3.90;2.45;;;;;;;;;;5113106;28;20291;-87
2023/10/11 07:16:19;;;;;;;3.42;2.53;;;;;;;;;;5113527;28;20203;-87
2023/10/11 07:18:47;;;;;;;2.97;2.70;;;;;;;;;;5113096;28;20215;-88
2023/10/11 07:21:15;;;;;;;3.00;2.55;;;;;;;;;;5112644;28;20211;-86
2023/10/11 07:23:56;;;;;;;2.83;2.35;;;;;;;;;;5113082;28;20263;-88
2023/10/11 07:29:13;;;;;;;4.03;2.85;;;;;;;;;;5116708;28;20257;-88
2023/10/11 07:31:48;;;;;;;3.17;2.78;;;;;;;;;;5116942;28;20280;-88
2023/10/11 07:34:18;;;;;;;4.43;3.30;;;;;;;;;;5117242;28;20242;-88
2023/10/11 07:36:48;;;;;;;5.38;3.28;;;;;;;;;;5117011;28;20609;-88
2023/10/11 07:39:25;;;;;;;8.05;3.67;;;;;;;;;;5116946;28;20302;-88
2023/10/11 07:42:00;;;;;;;5.68;4.10;;;;;;;;;;5117513;28;20203;-88
2023/10/11 07:44:30;;;;;;;5.82;3.30;;;;;;;;;;5117072;27;20244;-88
2023/10/11 07:46:58;;;;;;;2.80;2.60;;;;;;;;;;5116669;28;20248;-88
2023/10/11 07:49:26;;;;;;;4.20;2.55;;;;;;;;;;5116572;28;20199;-88
2023/10/11 07:51:58;;;;;;;4.32;3.17;;;;;;;;;;5116177;28;20684;-89
2023/10/11 07:54:27;;;;;;;2.65;2.30;;;;;;;;;;5116862;28;20200;-87
2023/10/11 07:56:57;;;;;;;3.08;2.65;;;;;;;;;;5118225;28;20206;-88
2023/10/11 07:59:27;;;;;;;4.32;3.10;;;;;;;;;;5126986;28;20220;-92
2023/10/11 08:01:56;;;;;;;5.95;3.85;;;;;;;;;;5121348;28;20222;-93
2023/10/11 08:04:28;;;;;;;3.67;3.10;;;;;;;;;;5118592;28;20210;-87
2023/10/11 08:07:00;;;;;;;6.40;3.70;;;;;;;;;;5116765;28;20669;-91
2023/10/11 08:09:45;;;;;;;4.10;2.75;;;;;;;;;;5118296;28;20216;-87
2023/10/11 08:12:13;;;;;;;4.70;3.60;;;;;;;;;;5140249;22;20229;-93
2023/10/11 08:17:15;;;;;;;4.80;2.97;;;;;;;;;;5093306;28;20243;-95
2023/10/11 08:19:44;;;;;;;3.28;2.75;;;;;;;;;;5083105;28;20651;-89
2023/10/11 08:22:14;;;;;;;3.70;2.88;;;;;;;;;;5076122;28;20762;-88
2023/10/11 08:24:49;;;;;;;3.53;2.97;;;;;;;;;;5075453;28;20225;-88
2023/10/11 08:27:27;;;;;;;4.22;3.22;;;;;;;;;;5075214;28;20208;-87
2023/10/11 08:30:06;;;;;;;4.43;2.75;;;;;;;;;;5074945;28;20224;-89
2023/10/11 08:32:37;;;;;;;4.90;4.15;;;;;;;;;;5075489;28;20201;-87
2023/10/11 08:35:09;;;;;;;3.65;3.17;;;;;;;;;;5075266;28;20677;-89
2023/10/11 08:37:37;;;;;;;3.20;2.85;;;;;;;;;;5074153;28;20223;-88
2023/10/11 08:40:20;;;;;;;4.30;3.05;;;;;;;;;;5074634;28;20229;-89
2023/10/11 08:42:49;;;;;;;4.80;3.42;;;;;;;;;;5074789;28;20607;-88
2023/10/11 08:45:25;;;;;;;3.13;2.63;;;;;;;;;;5074635;28;20235;-88
2023/10/11 08:47:54;;;;;;;3.78;2.63;;;;;;;;;;5074784;28;20229;-88
2023/10/11 08:50:22;;;;;;;4.40;3.78;;;;;;;;;;5074338;28;20598;-89
2023/10/11 08:52:51;;;;;;;4.57;3.40;;;;;;;;;;5070715;28;20205;-87
2023/10/11 08:55:20;;;;;;;4.70;2.53;;;;;;;;;;5054567;28;20284;-87
2023/10/11 08:57:48;;;;;;;5.05;3.25;;;;;;;;;;5054126;28;20293;-88
2023/10/11 09:00:29;;;;;;;5.72;3.25;;;;;;;;;;5054050;28;20221;-86
2023/10/11 09:02:58;;;;;;;3.75;3.08;;;;;;;;;;5054520;28;20224;-87
2023/10/11 09:05:43;;;;;;;5.75;3.55;;;;;;;;;;5060130;28;20589;-89
2023/10/11 09:08:26;;;;;;;4.30;3.55;;;;;;;;;;5053875;28;20201;-88
2023/10/11 09:11:02;;;;;;;5.40;3.55;;;;;;;;;;5053764;28;20226;-88
2023/10/11 09:13:32;;;;;;;5.70;3.35;;;;;;;;;;5053818;28;20197;-89
2023/10/11 09:15:59;;;;;;;5.93;4.28;;;;;;;;;;5053584;28;20206;-89
2023/10/11 09:18:34;;;;;;;3.25;2.80;;;;;;;;;;5053637;28;20200;-88
2023/10/11 09:21:09;;;;;;;4.75;4.15;;;;;;;;;;5053029;28;20213;-88
2023/10/11 09:23:37;;;;;;;5.43;3.15;;;;;;;;;;5064729;28;20193;-88
2023/10/11 09:26:08;;;;;;;6.45;4.07;;;;;;;;;;5066875;28;20693;-89
2023/10/11 09:28:40;;;;;;;4.72;3.17;;;;;;;;;;5082570;28;20255;-88
2023/10/11 09:31:11;;;;;;;4.78;3.35;;;;;;;;;;5094352;28;20205;-88
2023/10/11 09:33:40;;;;;;;5.07;2.83;;;;;;;;;;5098762;28;20200;-87
2023/10/11 09:36:09;;;;;;;2.95;2.75;;;;;;;;;;5098792;28;20177;-88
2023/10/11 09:38:40;;;;;;;3.97;2.70;;;;;;;;;;5085684;28;20193;-88
2023/10/11 09:41:10;;;;;;;9.65;4.40;;;;;;;;;;5076814;28;20232;-88
2023/10/11 09:43:43;;;;;;;3.80;2.58;;;;;;;;;;5075180;28;20193;-88
2023/10/11 09:46:13;;;;;;;4.88;3.10;;;;;;;;;;5074546;28;20223;-89
2023/10/11 09:48:41;;;;;;;4.25;3.30;;;;;;;;;;5072838;28;20229;-88
2023/10/11 09:51:13;;;;;;;3.63;2.97;;;;;;;;;;5073559;28;20220;-89
2023/10/11 09:53:49;;;;;;;3.70;3.13;;;;;;;;;;5070648;28;20676;-88
2023/10/11 09:56:33;;;;;;;6.85;4.03;;;;;;;;;;5052976;28;20270;-88
2023/10/11 09:59:19;;;;;;;2.58;2.33;;;;;;;;;;5052459;28;20671;-88
2023/10/11 10:01:56;;;;;;;5.68;3.22;;;;;;;;;;5053107;28;20263;-88
2023/10/11 10:05:04;;;;;;;3.25;2.63;;;;;;;;;;5052829;28;20198;-88
2023/10/11 10:07:42;;;;;;;3.78;2.92;;;;;;;;;;5053074;28;20295;-88
2023/10/11 10:10:12;;;;;;;4.72;3.35;;;;;;;;;;5052611;28;20221;-88
2023/10/11 10:12:45;;;;;;;5.95;3.38;;;;;;;;;;5052886;28;20209;-88
2023/10/11 10:15:20;;;;;;;3.05;2.65;;;;;;;;;;5052783;28;20710;-87
2023/10/11 10:18:24;;;;;;;3.67;2.85;;;;;;;;;;5052675;28;20204;-88
2023/10/11 10:21:04;;;;;;;3.08;2.50;;;;;;;;;;5048203;28;20225;-88
2023/10/11 10:23:37;;;;;;;2.67;2.47;;;;;;;;;;5064922;28;20292;-88
2023/10/11 10:26:43;;;;;;;4.30;3.10;;;;;;;;;;5058970;28;20674;-88
2023/10/11 10:29:15;;;;;;;2.92;2.38;;;;;;;;;;5052316;28;20201;-88
2023/10/11 10:32:06;;;;;;;3.30;3.00;;;;;;;;;;5052641;28;20671;-88
2023/10/11 10:34:34;;;;;;;4.05;3.10;;;;;;;;;;5052660;28;20216;-87
2023/10/11 10:37:06;;;;;;;4.45;2.85;;;;;;;;;;5052631;28;20289;-88
2023/10/11 10:39:49;;;;;;;6.07;3.05;;;;;;;;;;5063000;28;20253;-87
2023/10/11 10:42:18;;;;;;;2.90;2.70;;;;;;;;;;5052367;28;20232;-87
2023/10/11 10:44:53;;;;;;;7.68;3.17;;;;;;;;;;5052482;28;20285;-88
2023/10/11 10:47:28;;;;;;;5.65;2.80;;;;;;;;;;5053570;28;20204;-88
2023/10/11 10:49:56;;;;;;;3.45;3.08;;;;;;;;;;5053239;28;20724;-88
2023/10/11 10:52:26;;;;;;;4.20;2.72;;;;;;;;;;5058012;28;20726;-88
2023/10/11 10:55:05;;;;;;;4.75;3.30;;;;;;;;;;5072678;28;20227;-88
2023/10/11 10:57:33;;;;;;;2.78;2.33;;;;;;;;;;5072382;28;20227;-88
2023/10/11 11:00:05;;;;;;;5.03;2.75;;;;;;;;;;5072386;28;20235;-89
2023/10/11 11:02:36;;;;;;;2.63;2.40;;;;;;;;;;5076375;28;20722;-89
2023/10/11 11:05:13;;;;;;;5.30;2.83;;;;;;;;;;5076195;28;20193;-87
2023/10/11 11:07:47;;;;;;;2.83;2.58;;;;;;;;;;5076326;28;20518;-89
2023/10/11 11:10:19;;;;;;;3.38;2.30;;;;;;;;;;5076609;28;20235;-88
2023/10/11 11:12:46;;;;;;;4.97;3.08;;;;;;;;;;5076328;28;20200;-89
2023/10/11 11:15:20;;;;;;;3.60;2.88;;;;;;;;;;5076072;28;20213;-89
2023/10/11 11:17:49;;;;;;;3.35;2.90;;;;;;;;;;5083038;28;20265;-89
2023/10/11 11:20:28;;;;;;;4.68;2.83;;;;;;;;;;5077417;28;20217;-89
2023/10/11 11:22:57;;;;;;;3.60;2.78;;;;;;;;;;5075483;28;20207;-89
2023/10/11 11:25:28;;;;;;;3.47;3.17;;;;;;;;;;5076327;28;20240;-88
2023/10/11 11:28:15;;;;;;;5.38;3.33;;;;;;;;;;5076680;28;20208;-89
2023/10/11 11:30:45;;;;;;;4.28;3.88;;;;;;;;;;5075893;28;20227;-88
2023/10/11 11:33:34;;;;;;;2.63;2.30;;;;;;;;;;5075679;28;20201;-88
2023/10/11 11:36:01;;;;;;;3.75;2.88;;;;;;;;;;5075992;28;20597;-89
2023/10/11 11:38:36;;;;;;;3.42;3.13;;;;;;;;;;5075503;28;20622;-88
2023/10/11 11:41:05;;;;;;;3.33;2.83;;;;;;;;;;5077621;28;20228;-90
2023/10/11 11:43:38;;;;;;;3.28;2.33;;;;;;;;;;5081071;28;20197;-89
2023/10/11 11:46:06;;;;;;;5.30;2.72;;;;;;;;;;5076453;28;20663;-89
2023/10/11 11:48:41;;;;;;;3.72;3.00;;;;;;;;;;5075660;28;20213;-89
2023/10/11 11:51:13;;;;;;;4.05;3.17;;;;;;;;;;5075564;28;20714;-89
2023/10/11 11:53:44;;;;;;;2.92;2.63;;;;;;;;;;5065388;28;20206;-88
2023/10/11 11:56:11;;;;;;;3.97;3.17;;;;;;;;;;5069724;28;20216;-89
2023/10/11 11:58:45;;;;;;;3.97;2.83;;;;;;;;;;5075320;28;20201;-89
2023/10/11 12:01:17;;;;;;;2.33;2.13;;;;;;;;;;5075460;28;20312;-89
2023/10/11 12:03:52;;;;;;;3.35;2.70;;;;;;;;;;5075732;28;20201;-88
2023/10/11 12:06:22;;;;;;;2.78;2.45;;;;;;;;;;5074973;28;20215;-89
2023/10/11 12:08:57;;;;;;;3.97;2.88;;;;;;;;;;5075143;28;20221;-88
2023/10/11 12:11:28;;;;;;;3.38;2.78;;;;;;;;;;5074908;28;20224;-89
2023/10/11 12:13:58;;;;;;;3.25;2.45;;;;;;;;;;5075091;28;20201;-88
2023/10/11 12:16:27;;;;;;;2.92;2.72;;;;;;;;;;5075194;28;20208;-89
2023/10/11 12:18:58;;;;;;;4.75;2.97;;;;;;;;;;5075296;28;20260;-88
2023/10/11 12:21:27;;;;;;;3.10;2.63;;;;;;;;;;5075118;28;20260;-89
2023/10/11 12:23:54;;;;;;;3.70;2.45;;;;;;;;;;5074668;28;20208;-89
2023/10/11 12:26:25;;;;;;;3.20;2.90;;;;;;;;;;5074989;28;20659;-89
2023/10/11 12:28:52;;;;;;;4.22;3.13;;;;;;;;;;5092885;28;20212;-89
2023/10/11 12:31:20;;;;;;;7.30;3.85;;;;;;;;;;5088640;28;20248;-89
2023/10/11 12:33:49;;;;;;;3.15;2.47;;;;;;;;;;5087788;28;20221;-89
2023/10/11 12:36:20;;;;;;;2.65;2.25;;;;;;;;;;5085838;28;20203;-88
2023/10/11 12:38:48;;;;;;;2.42;2.22;;;;;;;;;;5087546;28;20201;-89
2023/10/11 12:41:15;;;;;;;3.25;2.92;;;;;;;;;;5078626;28;20227;-89
2023/10/11 12:43:45;;;;;;;2.60;2.40;;;;;;;;;;5077032;28;20247;-88
2023/10/11 12:46:13;;;;;;;3.47;2.75;;;;;;;;;;5077100;28;20201;-89
2023/10/11 12:48:40;;;;;;;5.78;3.03;;;;;;;;;;5075806;28;20208;-89
2023/10/11 12:51:10;;;;;;;3.58;2.05;;;;;;;;;;5075641;28;20234;-88
2023/10/11 12:53:38;;;;;;;3.47;3.13;;;;;;;;;;5073530;28;20208;-88
2023/10/11 12:56:10;;;;;;;4.03;2.50;;;;;;;;;;5054286;28;20211;-88
2023/10/11 12:58:40;;;;;;;3.03;2.70;;;;;;;;;;5054558;28;20206;-88
2023/10/11 13:01:11;;;;;;;2.33;2.03;;;;;;;;;;5054790;28;20230;-89
2023/10/11 13:03:40;;;;;;;3.67;2.20;;;;;;;;;;5055846;28;20289;-89
2023/10/11 13:06:10;;;;;;;6.75;2.90;;;;;;;;;;5055727;28;20201;-89
2023/10/11 13:08:38;;;;;;;5.60;3.25;;;;;;;;;;5055041;28;20201;-88
2023/10/11 13:11:11;;;;;;;3.45;2.97;;;;;;;;;;5055066;28;20237;-89
2023/10/11 13:13:40;;;;;;;6.20;3.85;;;;;;;;;;5055087;28;20285;-89
2023/10/11 13:16:08;;;;;;;3.63;2.60;;;;;;;;;;5054363;28;20206;-88
2023/10/11 13:18:38;;;;;;;2.90;2.35;;;;;;;;;;5054243;28;20399;-89
2023/10/11 13:21:11;;;;;;;3.28;2.25;;;;;;;;;;5053638;28;20230;-89
2023/10/11 13:23:43;;;;;;;3.78;2.20;;;;;;;;;;5058460;28;20639;-89
2023/10/11 13:26:16;;;;;;;3.60;2.47;;;;;;;;;;5053909;28;20239;-88
2023/10/11 13:28:48;;;;;;;2.97;2.67;;;;;;;;;;5054236;28;20205;-89
2023/10/11 13:31:17;;;;;;;4.03;2.78;;;;;;;;;;5054791;28;20218;-88
2023/10/11 13:33:45;;;;;;;4.18;2.83;;;;;;;;;;5054064;28;20201;-89
2023/10/11 13:36:14;;;;;;;2.50;2.25;;;;;;;;;;5053518;28;20211;-89
2023/10/11 13:38:45;;;;;;;3.28;2.97;;;;;;;;;;5061051;28;20204;-89
2023/10/11 13:41:12;;;;;;;2.75;2.55;;;;;;;;;;5054297;28;20225;-89
2023/10/11 13:43:40;;;;;;;4.28;2.78;;;;;;;;;;5054509;28;20201;-89
2023/10/11 13:46:10;;;;;;;3.35;2.92;;;;;;;;;;5055155;28;20659;-89
2023/10/11 13:48:40;;;;;;;4.40;2.75;;;;;;;;;;5054535;28;20209;-89
2023/10/11 13:51:10;;;;;;;3.95;2.80;;;;;;;;;;5054228;28;20275;-88
2023/10/11 13:53:42;;;;;;;4.45;2.90;;;;;;;;;;5057496;28;20213;-88
2023/10/11 13:56:16;;;;;;;5.53;2.72;;;;;;;;;;5053408;28;20664;-89
2023/10/11 13:58:45;;;;;;;4.57;3.78;;;;;;;;;;5053293;28;20200;-89
2023/10/11 14:01:36;;;;;;;5.13;2.25;;;;;;;;;;5064960;28;20285;-88
2023/10/11 14:04:13;;;;;;;4.13;3.08;;;;;;;;;;5078120;28;20196;-87
2023/10/11 14:06:46;;;;;;;3.15;2.78;;;;;;;;;;5077765;28;20184;-88
2023/10/11 14:09:18;;;;;;;2.83;2.22;;;;;;;;;;5056716;28;20655;-88
2023/10/11 14:11:47;;;;;;;4.38;2.53;;;;;;;;;;5055080;28;20639;-88
2023/10/11 14:14:20;;;;;;;4.40;2.80;;;;;;;;;;5053911;28;20205;-88
2023/10/11 14:16:48;;;;;;;4.43;2.33;;;;;;;;;;5053598;28;20300;-89
2023/10/11 14:19:17;;;;;;;2.63;2.15;;;;;;;;;;5060859;28;20209;-89
2023/10/11 14:21:48;;;;;;;4.70;2.50;;;;;;;;;;5053119;28;20304;-88
2023/10/11 14:24:18;;;;;;;4.93;2.97;;;;;;;;;;5056985;28;20304;-88
2023/10/11 14:26:46;;;;;;;4.55;2.40;;;;;;;;;;5052647;28;20608;-88
2023/10/11 14:29:15;;;;;;;2.17;1.98;;;;;;;;;;5053331;28;20206;-89
2023/10/11 14:31:43;;;;;;;6.90;3.67;;;;;;;;;;5055197;28;20685;-88
2023/10/11 14:34:11;;;;;;;2.90;2.40;;;;;;;;;;5053569;28;20284;-89
2023/10/11 14:36:40;;;;;;;6.75;2.58;;;;;;;;;;5053107;28;20201;-89
2023/10/11 14:39:17;;;;;;;5.32;2.72;;;;;;;;;;5053316;28;20284;-89
2023/10/11 14:41:48;;;;;;;5.90;2.92;;;;;;;;;;5061808;28;20260;-88
2023/10/11 14:44:15;;;;;;;4.15;2.00;;;;;;;;;;5054412;28;20212;-89
2023/10/11 14:46:44;;;;;;;3.45;2.60;;;;;;;;;;5053042;28;20621;-89
2023/10/11 14:49:12;;;;;;;5.22;2.10;;;;;;;;;;5053160;28;20208;-88
2023/10/11 14:51:41;;;;;;;3.90;2.38;;;;;;;;;;5053915;28;20281;-89
2023/10/11 14:54:12;;;;;;;2.85;2.25;;;;;;;;;;5073058;28;20224;-89
2023/10/11 14:56:40;;;;;;;3.35;2.17;;;;;;;;;;5076288;28;20204;-89
2023/10/11 14:59:12;;;;;;;3.00;2.40;;;;;;;;;;5074277;28;20235;-91
2023/10/11 15:01:39;;;;;;;3.35;2.03;;;;;;;;;;5072463;28;20197;-89
2023/10/11 15:04:10;;;;;;;4.63;2.67;;;;;;;;;;5072108;28;20227;-90
2023/10/11 15:06:38;;;;;;;2.17;1.75;;;;;;;;;;5071942;28;20185;-89
2023/10/11 15:09:09;;;;;;;3.05;2.10;;;;;;;;;;5071939;28;20208;-90
2023/10/11 15:11:36;;;;;;;3.97;2.38;;;;;;;;;;5072174;28;20197;-90
2023/10/11 15:14:07;;;;;;;3.30;2.22;;;;;;;;;;5071984;28;20585;-89
2023/10/11 15:16:36;;;;;;;5.47;2.72;;;;;;;;;;5072491;28;20311;-89
2023/10/11 15:19:04;;;;;;;5.28;3.42;;;;;;;;;;5071802;28;20201;-89
2023/10/11 15:21:32;;;;;;;3.75;2.47;;;;;;;;;;5071981;28;20221;-88
2023/10/11 15:23:59;;;;;;;2.90;2.50;;;;;;;;;;5073547;28;20224;-90
2023/10/11 15:26:27;;;;;;;3.28;1.73;;;;;;;;;;5084659;28;20272;-91
2023/10/11 15:28:55;;;;;;;2.22;1.75;;;;;;;;;;5084114;28;20221;-89
2023/10/11 15:31:22;;;;;;;3.10;2.17;;;;;;;;;;5079883;28;20228;-90
2023/10/11 15:33:51;;;;;;;3.45;1.98;;;;;;;;;;5080851;28;20193;-90